sensor_id;sensor_type;location;lat;lon;timestamp;P1;durP1;ratioP1;P2;durP2;ratioP2
28266;SDS011;15525;45.568;5.448;2023-07-09T00:00:14;11.95;;;8.32;;
28266;SDS011;15525;45.568;5.448;2023-07-09T00:02:42;13.13;;;8.15;;
28266;SDS011;15525;45.568;5.448;2023-07-09T00:05:09;13.15;;;8.77;;
28266;SDS011;15525;45.568;5.448;2023-07-09T00:07:38;12.65;;;8.18;;
28266;SDS011;15525;45.568;5.448;2023-07-09T00:10:03;14.80;;;9.10;;
28266;SDS011;15525;45.568;5.448;2023-07-09T00:12:41;11.65;;;8.68;;
28266;SDS011;15525;45.568;5.448;2023-07-09T00:15:07;13.05;;;8.35;;
28266;SDS011;15525;45.568;5.448;2023-07-09T00:17:34;16.38;;;8.18;;
28266;SDS011;15525;45.568;5.448;2023-07-09T00:20:00;12.65;;;8.65;;
28266;SDS011;15525;45.568;5.448;2023-07-09T00:22:26;11.13;;;8.30;;
28266;SDS011;15525;45.568;5.448;2023-07-09T00:24:54;14.15;;;8.88;;
28266;SDS011;15525;45.568;5.448;2023-07-09T00:27:22;15.88;;;9.30;;
28266;SDS011;15525;45.568;5.448;2023-07-09T00:29:50;14.05;;;9.00;;
28266;SDS011;15525;45.568;5.448;2023-07-09T00:32:17;15.55;;;8.65;;
28266;SDS011;15525;45.568;5.448;2023-07-09T00:34:50;16.90;;;8.88;;
28266;SDS011;15525;45.568;5.448;2023-07-09T00:37:17;11.52;;;8.50;;
28266;SDS011;15525;45.568;5.448;2023-07-09T00:39:45;18.10;;;9.25;;
28266;SDS011;15525;45.568;5.448;2023-07-09T00:42:17;11.52;;;8.93;;
28266;SDS011;15525;45.568;5.448;2023-07-09T00:44:45;15.35;;;9.07;;
28266;SDS011;15525;45.568;5.448;2023-07-09T00:47:18;14.90;;;8.85;;
28266;SDS011;15525;45.568;5.448;2023-07-09T00:50:26;16.05;;;9.00;;
28266;SDS011;15525;45.568;5.448;2023-07-09T00:52:58;13.05;;;9.10;;
28266;SDS011;15525;45.568;5.448;2023-07-09T00:55:29;13.20;;;8.80;;
28266;SDS011;15525;45.568;5.448;2023-07-09T00:57:59;16.23;;;9.32;;
28266;SDS011;15525;45.568;5.448;2023-07-09T01:00:29;13.25;;;9.00;;
28266;SDS011;15525;45.568;5.448;2023-07-09T01:03:07;16.65;;;8.90;;
28266;SDS011;15525;45.568;5.448;2023-07-09T01:05:35;14.45;;;9.25;;
28266;SDS011;15525;45.568;5.448;2023-07-09T01:08:02;13.20;;;9.00;;
28266;SDS011;15525;45.568;5.448;2023-07-09T01:10:28;14.88;;;8.98;;
28266;SDS011;15525;45.568;5.448;2023-07-09T01:12:53;14.18;;;8.65;;
28266;SDS011;15525;45.568;5.448;2023-07-09T01:15:19;15.60;;;8.95;;
28266;SDS011;15525;45.568;5.448;2023-07-09T01:17:44;14.55;;;9.73;;
28266;SDS011;15525;45.568;5.448;2023-07-09T01:20:14;12.50;;;8.40;;
28266;SDS011;15525;45.568;5.448;2023-07-09T01:22:41;13.15;;;8.93;;
28266;SDS011;15525;45.568;5.448;2023-07-09T01:25:07;14.38;;;9.18;;
28266;SDS011;15525;45.568;5.448;2023-07-09T01:29:58;14.55;;;8.82;;
28266;SDS011;15525;45.568;5.448;2023-07-09T01:32:26;13.52;;;8.45;;
28266;SDS011;15525;45.568;5.448;2023-07-09T01:34:54;15.07;;;9.20;;
28266;SDS011;15525;45.568;5.448;2023-07-09T01:37:23;17.38;;;8.88;;
28266;SDS011;15525;45.568;5.448;2023-07-09T01:39:51;13.45;;;8.95;;
28266;SDS011;15525;45.568;5.448;2023-07-09T01:42:18;12.35;;;9.35;;
28266;SDS011;15525;45.568;5.448;2023-07-09T01:44:47;14.70;;;9.65;;
28266;SDS011;15525;45.568;5.448;2023-07-09T01:47:15;15.00;;;9.60;;
28266;SDS011;15525;45.568;5.448;2023-07-09T01:49:40;12.98;;;9.30;;
28266;SDS011;15525;45.568;5.448;2023-07-09T01:52:06;13.25;;;9.05;;
28266;SDS011;15525;45.568;5.448;2023-07-09T01:54:35;15.75;;;9.35;;
28266;SDS011;15525;45.568;5.448;2023-07-09T01:59:44;15.32;;;9.32;;
28266;SDS011;15525;45.568;5.448;2023-07-09T02:02:11;16.52;;;8.52;;
28266;SDS011;15525;45.568;5.448;2023-07-09T02:04:44;14.35;;;9.43;;
28266;SDS011;15525;45.568;5.448;2023-07-09T02:07:12;12.15;;;9.02;;
28266;SDS011;15525;45.568;5.448;2023-07-09T02:09:38;18.48;;;9.63;;
28266;SDS011;15525;45.568;5.448;2023-07-09T02:12:03;12.60;;;9.15;;
28266;SDS011;15525;45.568;5.448;2023-07-09T02:14:29;16.67;;;9.13;;
28266;SDS011;15525;45.568;5.448;2023-07-09T02:16:54;13.90;;;9.32;;
28266;SDS011;15525;45.568;5.448;2023-07-09T02:19:20;13.10;;;8.80;;
28266;SDS011;15525;45.568;5.448;2023-07-09T02:21:45;16.05;;;9.48;;
28266;SDS011;15525;45.568;5.448;2023-07-09T02:24:11;14.73;;;8.77;;
28266;SDS011;15525;45.568;5.448;2023-07-09T02:26:36;13.45;;;9.23;;
28266;SDS011;15525;45.568;5.448;2023-07-09T02:29:01;16.60;;;9.40;;
28266;SDS011;15525;45.568;5.448;2023-07-09T02:31:27;14.65;;;9.02;;
28266;SDS011;15525;45.568;5.448;2023-07-09T02:33:55;15.90;;;9.20;;
28266;SDS011;15525;45.568;5.448;2023-07-09T02:36:21;18.67;;;9.52;;
28266;SDS011;15525;45.568;5.448;2023-07-09T02:38:47;16.15;;;9.45;;
28266;SDS011;15525;45.568;5.448;2023-07-09T02:41:12;16.52;;;9.73;;
28266;SDS011;15525;45.568;5.448;2023-07-09T02:43:38;18.27;;;9.25;;
28266;SDS011;15525;45.568;5.448;2023-07-09T02:46:03;16.20;;;9.75;;
28266;SDS011;15525;45.568;5.448;2023-07-09T02:48:28;13.43;;;8.73;;
28266;SDS011;15525;45.568;5.448;2023-07-09T02:50:54;13.55;;;9.27;;
28266;SDS011;15525;45.568;5.448;2023-07-09T02:53:19;17.23;;;9.68;;
28266;SDS011;15525;45.568;5.448;2023-07-09T02:55:45;15.55;;;8.75;;
28266;SDS011;15525;45.568;5.448;2023-07-09T02:58:10;14.38;;;8.80;;
28266;SDS011;15525;45.568;5.448;2023-07-09T03:00:35;14.18;;;8.70;;
28266;SDS011;15525;45.568;5.448;2023-07-09T03:03:01;13.88;;;9.40;;
28266;SDS011;15525;45.568;5.448;2023-07-09T03:05:27;16.30;;;9.20;;
28266;SDS011;15525;45.568;5.448;2023-07-09T03:07:52;13.75;;;9.32;;
28266;SDS011;15525;45.568;5.448;2023-07-09T03:10:17;16.42;;;9.07;;
28266;SDS011;15525;45.568;5.448;2023-07-09T03:12:43;16.58;;;8.85;;
28266;SDS011;15525;45.568;5.448;2023-07-09T03:15:08;12.93;;;9.07;;
28266;SDS011;15525;45.568;5.448;2023-07-09T03:17:34;11.77;;;8.88;;
28266;SDS011;15525;45.568;5.448;2023-07-09T03:19:59;12.98;;;8.93;;
28266;SDS011;15525;45.568;5.448;2023-07-09T03:22:24;16.42;;;8.98;;
28266;SDS011;15525;45.568;5.448;2023-07-09T03:24:50;16.17;;;8.98;;
28266;SDS011;15525;45.568;5.448;2023-07-09T03:27:15;15.27;;;8.68;;
28266;SDS011;15525;45.568;5.448;2023-07-09T03:29:40;13.15;;;9.45;;
28266;SDS011;15525;45.568;5.448;2023-07-09T03:32:06;16.10;;;8.95;;
28266;SDS011;15525;45.568;5.448;2023-07-09T03:34:31;12.80;;;9.00;;
28266;SDS011;15525;45.568;5.448;2023-07-09T03:36:57;15.77;;;9.85;;
28266;SDS011;15525;45.568;5.448;2023-07-09T03:39:22;16.58;;;10.13;;
28266;SDS011;15525;45.568;5.448;2023-07-09T03:41:47;14.88;;;9.65;;
28266;SDS011;15525;45.568;5.448;2023-07-09T03:44:13;14.45;;;9.10;;
28266;SDS011;15525;45.568;5.448;2023-07-09T03:46:38;13.38;;;9.10;;
28266;SDS011;15525;45.568;5.448;2023-07-09T03:49:04;13.65;;;8.88;;
28266;SDS011;15525;45.568;5.448;2023-07-09T03:51:29;15.52;;;9.00;;
28266;SDS011;15525;45.568;5.448;2023-07-09T03:53:55;14.88;;;9.73;;
28266;SDS011;15525;45.568;5.448;2023-07-09T03:56:20;13.23;;;9.10;;
28266;SDS011;15525;45.568;5.448;2023-07-09T03:58:46;15.27;;;8.60;;
28266;SDS011;15525;45.568;5.448;2023-07-09T04:01:11;17.42;;;8.95;;
28266;SDS011;15525;45.568;5.448;2023-07-09T04:03:37;14.15;;;8.93;;
28266;SDS011;15525;45.568;5.448;2023-07-09T04:06:02;14.25;;;8.75;;
28266;SDS011;15525;45.568;5.448;2023-07-09T04:08:28;16.55;;;9.52;;
28266;SDS011;15525;45.568;5.448;2023-07-09T04:10:54;13.18;;;8.43;;
28266;SDS011;15525;45.568;5.448;2023-07-09T04:13:21;17.13;;;9.50;;
28266;SDS011;15525;45.568;5.448;2023-07-09T04:15:47;19.45;;;9.50;;
28266;SDS011;15525;45.568;5.448;2023-07-09T04:18:13;15.32;;;9.02;;
28266;SDS011;15525;45.568;5.448;2023-07-09T04:20:38;13.55;;;8.77;;
28266;SDS011;15525;45.568;5.448;2023-07-09T04:23:06;15.00;;;8.88;;
28266;SDS011;15525;45.568;5.448;2023-07-09T04:25:31;13.50;;;8.02;;
28266;SDS011;15525;45.568;5.448;2023-07-09T04:27:57;14.02;;;8.65;;
28266;SDS011;15525;45.568;5.448;2023-07-09T04:30:22;16.08;;;8.70;;
28266;SDS011;15525;45.568;5.448;2023-07-09T04:32:48;14.63;;;8.75;;
28266;SDS011;15525;45.568;5.448;2023-07-09T04:35:14;13.50;;;8.50;;
28266;SDS011;15525;45.568;5.448;2023-07-09T04:37:40;11.48;;;8.00;;
28266;SDS011;15525;45.568;5.448;2023-07-09T04:40:06;15.07;;;8.43;;
28266;SDS011;15525;45.568;5.448;2023-07-09T04:42:35;14.85;;;8.80;;
28266;SDS011;15525;45.568;5.448;2023-07-09T04:45:03;17.63;;;8.32;;
28266;SDS011;15525;45.568;5.448;2023-07-09T04:47:28;13.52;;;8.48;;
28266;SDS011;15525;45.568;5.448;2023-07-09T04:49:54;17.20;;;7.60;;
28266;SDS011;15525;45.568;5.448;2023-07-09T04:52:19;14.10;;;8.13;;
28266;SDS011;15525;45.568;5.448;2023-07-09T04:54:44;16.20;;;9.00;;
28266;SDS011;15525;45.568;5.448;2023-07-09T04:57:11;16.08;;;8.15;;
28266;SDS011;15525;45.568;5.448;2023-07-09T04:59:37;13.90;;;8.25;;
28266;SDS011;15525;45.568;5.448;2023-07-09T05:02:02;13.85;;;8.45;;
28266;SDS011;15525;45.568;5.448;2023-07-09T05:04:29;16.17;;;8.02;;
28266;SDS011;15525;45.568;5.448;2023-07-09T05:06:54;14.02;;;8.68;;
28266;SDS011;15525;45.568;5.448;2023-07-09T05:09:20;16.35;;;8.10;;
28266;SDS011;15525;45.568;5.448;2023-07-09T05:11:45;15.93;;;8.60;;
28266;SDS011;15525;45.568;5.448;2023-07-09T05:14:11;10.32;;;7.70;;
28266;SDS011;15525;45.568;5.448;2023-07-09T05:16:36;15.50;;;9.05;;
28266;SDS011;15525;45.568;5.448;2023-07-09T05:19:02;12.00;;;7.35;;
28266;SDS011;15525;45.568;5.448;2023-07-09T05:21:28;14.93;;;7.63;;
28266;SDS011;15525;45.568;5.448;2023-07-09T05:23:53;17.60;;;8.10;;
28266;SDS011;15525;45.568;5.448;2023-07-09T05:26:19;13.98;;;8.10;;
28266;SDS011;15525;45.568;5.448;2023-07-09T05:28:44;13.45;;;8.15;;
28266;SDS011;15525;45.568;5.448;2023-07-09T05:31:09;12.43;;;7.40;;
28266;SDS011;15525;45.568;5.448;2023-07-09T05:33:35;14.25;;;8.68;;
28266;SDS011;15525;45.568;5.448;2023-07-09T05:36:01;16.63;;;8.43;;
28266;SDS011;15525;45.568;5.448;2023-07-09T05:38:27;11.85;;;7.43;;
28266;SDS011;15525;45.568;5.448;2023-07-09T05:40:59;12.48;;;7.55;;
28266;SDS011;15525;45.568;5.448;2023-07-09T05:43:28;14.40;;;8.02;;
28266;SDS011;15525;45.568;5.448;2023-07-09T05:45:54;15.15;;;8.02;;
28266;SDS011;15525;45.568;5.448;2023-07-09T05:48:20;11.38;;;7.55;;
28266;SDS011;15525;45.568;5.448;2023-07-09T05:50:45;13.55;;;7.90;;
28266;SDS011;15525;45.568;5.448;2023-07-09T05:53:11;17.67;;;7.85;;
28266;SDS011;15525;45.568;5.448;2023-07-09T05:55:36;13.68;;;7.85;;
28266;SDS011;15525;45.568;5.448;2023-07-09T05:58:02;13.07;;;7.72;;
28266;SDS011;15525;45.568;5.448;2023-07-09T06:00:28;13.30;;;7.78;;
28266;SDS011;15525;45.568;5.448;2023-07-09T06:02:53;15.45;;;7.93;;
28266;SDS011;15525;45.568;5.448;2023-07-09T06:05:19;15.48;;;8.30;;
28266;SDS011;15525;45.568;5.448;2023-07-09T06:07:45;10.10;;;7.20;;
28266;SDS011;15525;45.568;5.448;2023-07-09T06:10:10;12.13;;;7.97;;
28266;SDS011;15525;45.568;5.448;2023-07-09T06:12:36;14.70;;;7.82;;
28266;SDS011;15525;45.568;5.448;2023-07-09T06:15:01;11.57;;;7.93;;
28266;SDS011;15525;45.568;5.448;2023-07-09T06:17:27;13.63;;;7.72;;
28266;SDS011;15525;45.568;5.448;2023-07-09T06:19:53;11.63;;;7.53;;
28266;SDS011;15525;45.568;5.448;2023-07-09T06:22:18;14.02;;;7.65;;
28266;SDS011;15525;45.568;5.448;2023-07-09T06:24:44;13.55;;;7.65;;
28266;SDS011;15525;45.568;5.448;2023-07-09T06:27:10;19.45;;;8.27;;
28266;SDS011;15525;45.568;5.448;2023-07-09T06:29:35;12.73;;;7.43;;
28266;SDS011;15525;45.568;5.448;2023-07-09T06:32:01;13.40;;;7.47;;
28266;SDS011;15525;45.568;5.448;2023-07-09T06:34:26;13.23;;;7.78;;
28266;SDS011;15525;45.568;5.448;2023-07-09T06:36:52;11.43;;;7.35;;
28266;SDS011;15525;45.568;5.448;2023-07-09T06:39:18;12.55;;;7.53;;
28266;SDS011;15525;45.568;5.448;2023-07-09T06:41:44;12.98;;;7.82;;
28266;SDS011;15525;45.568;5.448;2023-07-09T06:44:09;11.63;;;7.25;;
28266;SDS011;15525;45.568;5.448;2023-07-09T06:46:35;14.27;;;7.82;;
28266;SDS011;15525;45.568;5.448;2023-07-09T06:49:01;12.63;;;7.57;;
28266;SDS011;15525;45.568;5.448;2023-07-09T06:51:27;13.75;;;7.40;;
28266;SDS011;15525;45.568;5.448;2023-07-09T06:53:53;14.70;;;8.48;;
28266;SDS011;15525;45.568;5.448;2023-07-09T06:56:18;14.63;;;8.35;;
28266;SDS011;15525;45.568;5.448;2023-07-09T06:58:43;10.43;;;6.93;;
28266;SDS011;15525;45.568;5.448;2023-07-09T07:01:11;12.75;;;8.07;;
28266;SDS011;15525;45.568;5.448;2023-07-09T07:03:37;13.35;;;7.40;;
28266;SDS011;15525;45.568;5.448;2023-07-09T07:06:03;15.15;;;8.15;;
28266;SDS011;15525;45.568;5.448;2023-07-09T07:08:31;11.85;;;7.60;;
28266;SDS011;15525;45.568;5.448;2023-07-09T07:10:58;11.63;;;7.78;;
28266;SDS011;15525;45.568;5.448;2023-07-09T07:13:30;12.23;;;7.45;;
28266;SDS011;15525;45.568;5.448;2023-07-09T07:16:06;12.68;;;8.23;;
28266;SDS011;15525;45.568;5.448;2023-07-09T07:18:33;11.10;;;7.88;;
28266;SDS011;15525;45.568;5.448;2023-07-09T07:20:58;18.98;;;7.63;;
28266;SDS011;15525;45.568;5.448;2023-07-09T07:23:24;12.23;;;7.60;;
28266;SDS011;15525;45.568;5.448;2023-07-09T07:25:49;13.98;;;7.68;;
28266;SDS011;15525;45.568;5.448;2023-07-09T07:28:15;9.73;;;6.90;;
28266;SDS011;15525;45.568;5.448;2023-07-09T07:30:41;12.32;;;7.93;;
28266;SDS011;15525;45.568;5.448;2023-07-09T07:33:07;11.90;;;8.02;;
28266;SDS011;15525;45.568;5.448;2023-07-09T07:35:33;11.25;;;7.35;;
28266;SDS011;15525;45.568;5.448;2023-07-09T07:37:58;13.80;;;8.02;;
28266;SDS011;15525;45.568;5.448;2023-07-09T07:40:24;10.98;;;8.27;;
28266;SDS011;15525;45.568;5.448;2023-07-09T07:42:49;11.50;;;7.63;;
28266;SDS011;15525;45.568;5.448;2023-07-09T07:45:15;12.07;;;7.95;;
28266;SDS011;15525;45.568;5.448;2023-07-09T07:47:41;13.30;;;7.80;;
28266;SDS011;15525;45.568;5.448;2023-07-09T07:50:07;12.07;;;8.07;;
28266;SDS011;15525;45.568;5.448;2023-07-09T07:52:33;12.85;;;7.78;;
28266;SDS011;15525;45.568;5.448;2023-07-09T07:55:02;13.50;;;8.00;;
28266;SDS011;15525;45.568;5.448;2023-07-09T07:57:31;12.43;;;7.40;;
28266;SDS011;15525;45.568;5.448;2023-07-09T07:59:57;13.45;;;8.75;;
28266;SDS011;15525;45.568;5.448;2023-07-09T08:02:22;12.15;;;7.75;;
28266;SDS011;15525;45.568;5.448;2023-07-09T08:04:49;11.95;;;8.30;;
28266;SDS011;15525;45.568;5.448;2023-07-09T08:07:16;13.23;;;8.75;;
28266;SDS011;15525;45.568;5.448;2023-07-09T08:09:43;12.15;;;8.35;;
28266;SDS011;15525;45.568;5.448;2023-07-09T08:12:10;13.55;;;8.15;;
28266;SDS011;15525;45.568;5.448;2023-07-09T08:14:37;15.73;;;8.60;;
28266;SDS011;15525;45.568;5.448;2023-07-09T08:17:03;13.35;;;8.50;;
28266;SDS011;15525;45.568;5.448;2023-07-09T08:19:29;16.05;;;8.48;;
28266;SDS011;15525;45.568;5.448;2023-07-09T08:21:56;12.63;;;7.93;;
28266;SDS011;15525;45.568;5.448;2023-07-09T08:24:21;13.77;;;8.52;;
28266;SDS011;15525;45.568;5.448;2023-07-09T08:26:47;14.38;;;8.25;;
28266;SDS011;15525;45.568;5.448;2023-07-09T08:29:12;17.98;;;8.32;;
28266;SDS011;15525;45.568;5.448;2023-07-09T08:31:38;13.23;;;8.13;;
28266;SDS011;15525;45.568;5.448;2023-07-09T08:34:04;16.48;;;8.45;;
28266;SDS011;15525;45.568;5.448;2023-07-09T08:36:31;16.38;;;8.40;;
28266;SDS011;15525;45.568;5.448;2023-07-09T08:38:57;16.17;;;8.40;;
28266;SDS011;15525;45.568;5.448;2023-07-09T08:49:21;13.55;;;8.60;;
28266;SDS011;15525;45.568;5.448;2023-07-09T08:51:53;16.48;;;8.35;;
28266;SDS011;15525;45.568;5.448;2023-07-09T08:54:27;10.90;;;8.35;;
28266;SDS011;15525;45.568;5.448;2023-07-09T08:56:57;12.43;;;8.38;;
28266;SDS011;15525;45.568;5.448;2023-07-09T08:59:32;11.45;;;8.35;;
28266;SDS011;15525;45.568;5.448;2023-07-09T09:01:59;11.57;;;8.70;;
28266;SDS011;15525;45.568;5.448;2023-07-09T09:04:29;14.95;;;8.57;;
28266;SDS011;15525;45.568;5.448;2023-07-09T09:09:33;12.73;;;8.00;;
28266;SDS011;15525;45.568;5.448;2023-07-09T09:14:39;13.00;;;8.35;;
28266;SDS011;15525;45.568;5.448;2023-07-09T09:17:13;12.90;;;7.93;;
28266;SDS011;15525;45.568;5.448;2023-07-09T09:23:09;8.20;;;6.50;;
28266;SDS011;15525;45.568;5.448;2023-07-09T09:25:37;12.77;;;6.63;;
28266;SDS011;15525;45.568;5.448;2023-07-09T09:28:07;9.50;;;6.47;;
28266;SDS011;15525;45.568;5.448;2023-07-09T09:30:33;9.00;;;6.63;;
28266;SDS011;15525;45.568;5.448;2023-07-09T09:33:02;12.13;;;7.03;;
28266;SDS011;15525;45.568;5.448;2023-07-09T09:35:33;13.48;;;7.03;;
28266;SDS011;15525;45.568;5.448;2023-07-09T09:38:00;16.50;;;10.55;;
28266;SDS011;15525;45.568;5.448;2023-07-09T09:40:28;11.05;;;7.13;;
28266;SDS011;15525;45.568;5.448;2023-07-09T09:42:58;9.88;;;6.60;;
28266;SDS011;15525;45.568;5.448;2023-07-09T09:45:26;9.25;;;7.00;;
28266;SDS011;15525;45.568;5.448;2023-07-09T09:47:58;10.77;;;6.95;;
28266;SDS011;15525;45.568;5.448;2023-07-09T09:50:25;10.98;;;7.05;;
28266;SDS011;15525;45.568;5.448;2023-07-09T09:52:55;10.43;;;6.95;;
28266;SDS011;15525;45.568;5.448;2023-07-09T09:55:24;10.35;;;8.02;;
28266;SDS011;15525;45.568;5.448;2023-07-09T09:57:57;13.45;;;8.15;;
28266;SDS011;15525;45.568;5.448;2023-07-09T10:00:25;10.85;;;7.40;;
28266;SDS011;15525;45.568;5.448;2023-07-09T10:02:59;10.88;;;7.28;;
28266;SDS011;15525;45.568;5.448;2023-07-09T10:05:34;11.35;;;7.40;;
28266;SDS011;15525;45.568;5.448;2023-07-09T10:08:11;9.55;;;7.30;;
28266;SDS011;15525;45.568;5.448;2023-07-09T10:10:42;10.68;;;7.70;;
28266;SDS011;15525;45.568;5.448;2023-07-09T10:16:03;10.50;;;7.32;;
28266;SDS011;15525;45.568;5.448;2023-07-09T10:18:43;11.60;;;8.27;;
28266;SDS011;15525;45.568;5.448;2023-07-09T10:21:17;11.15;;;7.65;;
28266;SDS011;15525;45.568;5.448;2023-07-09T10:34:28;10.15;;;7.38;;
28266;SDS011;15525;45.568;5.448;2023-07-09T10:37:49;10.85;;;7.90;;
28266;SDS011;15525;45.568;5.448;2023-07-09T10:40:03;9.93;;;7.70;;
28266;SDS011;15525;45.568;5.448;2023-07-09T10:45:09;11.77;;;7.57;;
28266;SDS011;15525;45.568;5.448;2023-07-09T10:47:41;9.52;;;7.30;;
28266;SDS011;15525;45.568;5.448;2023-07-09T10:53:02;9.02;;;7.20;;
28266;SDS011;15525;45.568;5.448;2023-07-09T10:55:47;12.43;;;7.82;;
28266;SDS011;15525;45.568;5.448;2023-07-09T10:58:37;13.75;;;7.35;;
28266;SDS011;15525;45.568;5.448;2023-07-09T11:01:07;10.50;;;7.40;;
28266;SDS011;15525;45.568;5.448;2023-07-09T11:03:43;8.67;;;7.30;;
28266;SDS011;15525;45.568;5.448;2023-07-09T11:06:21;10.88;;;7.18;;
28266;SDS011;15525;45.568;5.448;2023-07-09T11:08:59;11.68;;;7.10;;
28266;SDS011;15525;45.568;5.448;2023-07-09T11:11:32;11.38;;;7.82;;
28266;SDS011;15525;45.568;5.448;2023-07-09T11:14:08;10.23;;;7.60;;
28266;SDS011;15525;45.568;5.448;2023-07-09T11:17:06;12.00;;;8.18;;
28266;SDS011;15525;45.568;5.448;2023-07-09T11:19:45;13.23;;;7.70;;
28266;SDS011;15525;45.568;5.448;2023-07-09T11:24:49;11.65;;;7.22;;
28266;SDS011;15525;45.568;5.448;2023-07-09T11:27:18;8.98;;;7.18;;
28266;SDS011;15525;45.568;5.448;2023-07-09T11:29:56;9.70;;;7.13;;
28266;SDS011;15525;45.568;5.448;2023-07-09T11:32:25;10.15;;;7.00;;
28266;SDS011;15525;45.568;5.448;2023-07-09T11:34:52;8.38;;;6.85;;
28266;SDS011;15525;45.568;5.448;2023-07-09T11:37:18;14.90;;;7.70;;
28266;SDS011;15525;45.568;5.448;2023-07-09T11:39:46;13.80;;;7.65;;
28266;SDS011;15525;45.568;5.448;2023-07-09T11:42:26;9.13;;;7.20;;
28266;SDS011;15525;45.568;5.448;2023-07-09T11:44:57;10.27;;;7.20;;
28266;SDS011;15525;45.568;5.448;2023-07-09T11:49:59;10.23;;;7.65;;
28266;SDS011;15525;45.568;5.448;2023-07-09T11:52:30;10.93;;;7.22;;
28266;SDS011;15525;45.568;5.448;2023-07-09T11:55:04;9.30;;;7.63;;
28266;SDS011;15525;45.568;5.448;2023-07-09T12:00:27;12.25;;;8.05;;
28266;SDS011;15525;45.568;5.448;2023-07-09T12:02:55;10.73;;;7.55;;
28266;SDS011;15525;45.568;5.448;2023-07-09T12:05:26;9.15;;;7.15;;
28266;SDS011;15525;45.568;5.448;2023-07-09T12:07:54;9.68;;;7.22;;
28266;SDS011;15525;45.568;5.448;2023-07-09T12:10:22;11.95;;;7.70;;
28266;SDS011;15525;45.568;5.448;2023-07-09T12:12:53;11.27;;;7.78;;
28266;SDS011;15525;45.568;5.448;2023-07-09T12:15:22;10.02;;;7.53;;
28266;SDS011;15525;45.568;5.448;2023-07-09T12:18:03;10.50;;;7.50;;
28266;SDS011;15525;45.568;5.448;2023-07-09T12:20:36;9.40;;;7.90;;
28266;SDS011;15525;45.568;5.448;2023-07-09T12:26:01;9.80;;;7.63;;
28266;SDS011;15525;45.568;5.448;2023-07-09T12:28:28;9.70;;;7.15;;
28266;SDS011;15525;45.568;5.448;2023-07-09T12:30:55;12.27;;;7.68;;
28266;SDS011;15525;45.568;5.448;2023-07-09T12:33:22;13.25;;;7.50;;
28266;SDS011;15525;45.568;5.448;2023-07-09T12:35:59;9.00;;;7.03;;
28266;SDS011;15525;45.568;5.448;2023-07-09T12:38:27;10.40;;;7.53;;
28266;SDS011;15525;45.568;5.448;2023-07-09T12:40:55;9.65;;;7.00;;
28266;SDS011;15525;45.568;5.448;2023-07-09T12:43:25;11.65;;;7.60;;
28266;SDS011;15525;45.568;5.448;2023-07-09T12:45:52;11.05;;;7.50;;
28266;SDS011;15525;45.568;5.448;2023-07-09T12:48:20;10.13;;;7.97;;
28266;SDS011;15525;45.568;5.448;2023-07-09T12:50:48;9.05;;;7.03;;
28266;SDS011;15525;45.568;5.448;2023-07-09T12:53:16;9.45;;;7.25;;
28266;SDS011;15525;45.568;5.448;2023-07-09T12:55:44;12.23;;;7.40;;
28266;SDS011;15525;45.568;5.448;2023-07-09T12:58:11;8.73;;;7.10;;
28266;SDS011;15525;45.568;5.448;2023-07-09T13:00:43;9.55;;;7.47;;
28266;SDS011;15525;45.568;5.448;2023-07-09T13:03:17;11.40;;;7.43;;
28266;SDS011;15525;45.568;5.448;2023-07-09T13:05:55;10.05;;;7.55;;
28266;SDS011;15525;45.568;5.448;2023-07-09T13:08:28;12.48;;;7.93;;
28266;SDS011;15525;45.568;5.448;2023-07-09T13:10:55;11.88;;;8.02;;
28266;SDS011;15525;45.568;5.448;2023-07-09T13:13:22;10.35;;;6.90;;
28266;SDS011;15525;45.568;5.448;2023-07-09T13:15:59;10.50;;;7.38;;
28266;SDS011;15525;45.568;5.448;2023-07-09T13:18:27;11.38;;;7.30;;
28266;SDS011;15525;45.568;5.448;2023-07-09T13:20:55;9.30;;;7.03;;
28266;SDS011;15525;45.568;5.448;2023-07-09T13:25:51;10.40;;;7.53;;
28266;SDS011;15525;45.568;5.448;2023-07-09T13:28:19;12.30;;;7.93;;
28266;SDS011;15525;45.568;5.448;2023-07-09T13:30:47;9.45;;;7.45;;
28266;SDS011;15525;45.568;5.448;2023-07-09T13:33:15;11.73;;;7.55;;
28266;SDS011;15525;45.568;5.448;2023-07-09T13:35:42;12.88;;;7.65;;
28266;SDS011;15525;45.568;5.448;2023-07-09T13:38:12;9.63;;;6.95;;
28266;SDS011;15525;45.568;5.448;2023-07-09T13:40:42;9.93;;;7.10;;
28266;SDS011;15525;45.568;5.448;2023-07-09T13:43:12;11.48;;;7.35;;
28266;SDS011;15525;45.568;5.448;2023-07-09T13:45:38;8.82;;;7.57;;
28266;SDS011;15525;45.568;5.448;2023-07-09T13:48:07;13.32;;;7.45;;
28266;SDS011;15525;45.568;5.448;2023-07-09T13:50:38;11.50;;;7.25;;
28266;SDS011;15525;45.568;5.448;2023-07-09T13:53:03;10.15;;;7.32;;
28266;SDS011;15525;45.568;5.448;2023-07-09T13:55:29;9.20;;;7.20;;
28266;SDS011;15525;45.568;5.448;2023-07-09T13:57:54;8.52;;;6.18;;
28266;SDS011;15525;45.568;5.448;2023-07-09T14:00:19;9.07;;;7.07;;
28266;SDS011;15525;45.568;5.448;2023-07-09T14:02:47;10.68;;;7.20;;
28266;SDS011;15525;45.568;5.448;2023-07-09T14:05:13;10.38;;;6.60;;
28266;SDS011;15525;45.568;5.448;2023-07-09T14:07:39;11.48;;;6.55;;
28266;SDS011;15525;45.568;5.448;2023-07-09T14:10:07;10.10;;;6.50;;
28266;SDS011;15525;45.568;5.448;2023-07-09T14:12:37;9.18;;;6.35;;
28266;SDS011;15525;45.568;5.448;2023-07-09T14:15:09;10.40;;;7.10;;
28266;SDS011;15525;45.568;5.448;2023-07-09T14:17:38;12.43;;;6.70;;
28266;SDS011;15525;45.568;5.448;2023-07-09T14:20:04;10.20;;;6.90;;
28266;SDS011;15525;45.568;5.448;2023-07-09T14:22:31;10.00;;;6.60;;
28266;SDS011;15525;45.568;5.448;2023-07-09T14:24:59;11.93;;;6.38;;
28266;SDS011;15525;45.568;5.448;2023-07-09T14:27:25;11.30;;;6.57;;
28266;SDS011;15525;45.568;5.448;2023-07-09T14:29:51;9.32;;;6.82;;
28266;SDS011;15525;45.568;5.448;2023-07-09T14:35:03;11.13;;;6.60;;
28266;SDS011;15525;45.568;5.448;2023-07-09T14:37:37;10.75;;;6.35;;
28266;SDS011;15525;45.568;5.448;2023-07-09T14:40:02;9.32;;;5.95;;
28266;SDS011;15525;45.568;5.448;2023-07-09T14:42:30;9.82;;;5.65;;
28266;SDS011;15525;45.568;5.448;2023-07-09T14:44:55;11.10;;;5.97;;
28266;SDS011;15525;45.568;5.448;2023-07-09T14:47:21;8.20;;;5.07;;
28266;SDS011;15525;45.568;5.448;2023-07-09T14:49:47;12.82;;;5.45;;
28266;SDS011;15525;45.568;5.448;2023-07-09T14:52:16;9.05;;;5.45;;
28266;SDS011;15525;45.568;5.448;2023-07-09T14:54:44;12.35;;;5.28;;
28266;SDS011;15525;45.568;5.448;2023-07-09T14:57:17;11.77;;;5.70;;
28266;SDS011;15525;45.568;5.448;2023-07-09T14:59:44;10.63;;;5.70;;
28266;SDS011;15525;45.568;5.448;2023-07-09T15:04:58;9.57;;;5.63;;
28266;SDS011;15525;45.568;5.448;2023-07-09T15:07:23;9.35;;;5.32;;
28266;SDS011;15525;45.568;5.448;2023-07-09T15:09:54;9.10;;;4.95;;
28266;SDS011;15525;45.568;5.448;2023-07-09T15:12:22;9.07;;;5.40;;
28266;SDS011;15525;45.568;5.448;2023-07-09T15:14:53;12.38;;;5.63;;
28266;SDS011;15525;45.568;5.448;2023-07-09T15:17:25;10.70;;;5.78;;
28266;SDS011;15525;45.568;5.448;2023-07-09T15:19:50;7.78;;;5.35;;
28266;SDS011;15525;45.568;5.448;2023-07-09T15:22:17;14.48;;;5.90;;
28266;SDS011;15525;45.568;5.448;2023-07-09T15:24:56;12.93;;;5.43;;
28266;SDS011;15525;45.568;5.448;2023-07-09T15:27:22;8.85;;;5.35;;
28266;SDS011;15525;45.568;5.448;2023-07-09T15:29:47;14.05;;;5.65;;
28266;SDS011;15525;45.568;5.448;2023-07-09T15:32:13;7.95;;;5.35;;
28266;SDS011;15525;45.568;5.448;2023-07-09T15:34:38;7.72;;;5.28;;
28266;SDS011;15525;45.568;5.448;2023-07-09T15:37:08;11.55;;;5.22;;
28266;SDS011;15525;45.568;5.448;2023-07-09T15:39:38;10.73;;;4.68;;